createdAt,value
2019-03-05T00:01:54.110Z,3.70
2019-03-05T00:04:24.734Z,2.27
2019-03-05T00:06:55.585Z,2.65
2019-03-05T00:09:26.222Z,2.67
2019-03-05T00:11:56.948Z,3.12
2019-03-05T00:14:27.558Z,3.42
2019-03-05T00:16:58.021Z,2.25
2019-03-05T00:19:28.555Z,1.82
2019-03-05T00:21:59.223Z,2.90
2019-03-05T00:25:10.874Z,2.20
2019-03-05T00:28:29.505Z,2.33
2019-03-05T00:31:12.936Z,2.30
2019-03-05T00:34:19.947Z,3.60
2019-03-05T00:37:05.914Z,3.47
2019-03-05T00:40:26.085Z,3.58
2019-03-05T00:43:50.338Z,2.33
2019-03-05T00:47:02.034Z,1.87
2019-03-05T00:50:04.335Z,3.65
2019-03-05T00:53:19.711Z,2.85
2019-03-05T00:56:32.563Z,3.25
2019-03-05T00:59:46.342Z,4.22
2019-03-05T01:02:34.998Z,2.22
2019-03-05T01:05:40.958Z,1.65
2019-03-05T01:08:11.669Z,4.08
2019-03-05T01:10:42.482Z,2.80
2019-03-05T01:13:13.122Z,2.60
2019-03-05T01:15:43.662Z,3.50
2019-03-05T01:18:14.205Z,2.47
2019-03-05T01:20:44.818Z,2.75
2019-03-05T01:23:15.363Z,3.12
2019-03-05T01:25:45.834Z,2.75
2019-03-05T01:28:16.399Z,2.50
2019-03-05T01:31:05.704Z,3.67
2019-03-05T01:33:51.192Z,1.82
2019-03-05T01:36:23.863Z,2.33
2019-03-05T01:39:06.302Z,2.58
2019-03-05T01:41:37.116Z,2.67
2019-03-05T01:44:07.662Z,2.45
2019-03-05T01:46:38.365Z,3.08
2019-03-05T01:49:09.027Z,3.77
2019-03-05T01:51:39.857Z,2.05
2019-03-05T01:54:10.550Z,2.77
2019-03-05T01:56:41.159Z,2.87
2019-03-05T01:59:12.012Z,1.42
2019-03-05T02:01:42.690Z,2.55
2019-03-05T02:04:13.400Z,1.90
2019-03-05T02:06:44.132Z,3.30
2019-03-05T02:09:15.175Z,2.33
2019-03-05T02:11:45.688Z,2.40
2019-03-05T02:14:16.224Z,1.60
2019-03-05T02:16:46.658Z,1.85
2019-03-05T02:19:40.118Z,3.60
2019-03-05T02:22:44.862Z,2.45
2019-03-05T02:25:59.748Z,2.50
2019-03-05T02:29:10.738Z,3.25
2019-03-05T02:32:53.528Z,2.90
2019-03-05T02:36:16.334Z,2.67
2019-03-05T02:39:48.753Z,1.52
2019-03-05T02:43:07.270Z,1.70
2019-03-05T02:46:18.399Z,2.22
2019-03-05T02:49:46.184Z,2.95
2019-03-05T02:53:10.864Z,2.37
2019-03-05T02:56:37.663Z,2.10
2019-03-05T02:59:06.912Z,2.65
2019-03-05T03:01:55.183Z,2.22
2019-03-05T03:04:29.170Z,1.98
2019-03-05T03:06:59.767Z,1.57
2019-03-05T03:10:13.026Z,2.22
2019-03-05T03:12:44.382Z,2.27
2019-03-05T03:15:20.989Z,1.72
2019-03-05T03:17:51.832Z,1.85
2019-03-05T03:20:23.415Z,2.65
2019-03-05T03:22:54.229Z,2.67
2019-03-05T03:25:25.498Z,3.05
2019-03-05T03:27:56.063Z,1.77
2019-03-05T03:30:28.447Z,2.00
2019-03-05T03:32:59.416Z,2.17
2019-03-05T03:35:30.281Z,2.08
2019-03-05T03:38:00.962Z,2.67
2019-03-05T03:40:31.707Z,2.85
2019-03-05T03:43:02.410Z,2.60
2019-03-05T03:45:33.255Z,2.92
2019-03-05T03:48:03.996Z,1.40
2019-03-05T03:50:34.645Z,2.83
2019-03-05T03:53:05.140Z,2.02
2019-03-05T03:55:35.964Z,2.25
2019-03-05T03:58:06.390Z,2.22
2019-03-05T04:00:37.363Z,2.55
2019-03-05T04:03:08.065Z,1.80
2019-03-05T04:05:38.832Z,2.12
2019-03-05T04:08:10.608Z,1.80
2019-03-05T04:10:41.537Z,2.42
2019-03-05T04:13:12.042Z,2.37
2019-03-05T04:15:42.761Z,1.77
2019-03-05T04:18:13.520Z,2.00
2019-03-05T04:20:50.604Z,2.55
2019-03-05T04:23:21.152Z,2.10
2019-03-05T04:25:51.802Z,2.22
2019-03-05T04:28:22.347Z,2.02
2019-03-05T04:30:52.951Z,1.55
2019-03-05T04:33:23.649Z,1.65
2019-03-05T04:35:54.124Z,1.75
2019-03-05T04:38:24.709Z,1.67
2019-03-05T04:40:55.695Z,2.25
2019-03-05T04:43:26.357Z,1.30
2019-03-05T04:46:09.912Z,2.40
2019-03-05T04:48:41.459Z,1.55
2019-03-05T04:51:15.516Z,1.20
2019-03-05T04:53:46.096Z,2.58
2019-03-05T04:56:16.973Z,1.37
2019-03-05T04:58:47.810Z,1.25
2019-03-05T05:01:18.413Z,1.77
2019-03-05T05:03:49.472Z,1.10
2019-03-05T05:06:20.183Z,1.75
2019-03-05T05:08:50.760Z,1.32
2019-03-05T05:11:21.473Z,1.65
2019-03-05T05:13:52.123Z,1.30
2019-03-05T05:16:22.703Z,1.70
2019-03-05T05:18:53.408Z,1.65
2019-03-05T05:21:25.391Z,1.30
2019-03-05T05:23:56.576Z,1.45
2019-03-05T05:26:27.740Z,2.50
2019-03-05T05:28:58.623Z,1.57
2019-03-05T05:31:29.601Z,1.62
2019-03-05T05:34:00.449Z,1.55
2019-03-05T05:36:31.546Z,4.03
2019-03-05T05:39:02.062Z,2.45
2019-03-05T05:41:32.892Z,2.08
2019-03-05T05:44:03.789Z,1.62
2019-03-05T05:46:34.938Z,2.10
2019-03-05T05:49:05.580Z,2.02
2019-03-05T05:51:36.131Z,1.87
2019-03-05T05:54:06.707Z,3.62
2019-03-05T05:56:37.483Z,2.35
2019-03-05T05:59:07.982Z,5.65
2019-03-05T06:01:38.593Z,3.77
2019-03-05T06:04:09.480Z,5.78
2019-03-05T06:06:40.100Z,5.22
2019-03-05T06:09:11.089Z,3.83
2019-03-05T06:11:41.676Z,4.62
2019-03-05T06:14:12.542Z,7.12
2019-03-05T06:16:43.527Z,7.50
2019-03-05T06:19:14.319Z,9.10
2019-03-05T06:21:44.746Z,4.33
2019-03-05T06:24:15.560Z,7.03
2019-03-05T06:26:46.270Z,7.78
2019-03-05T06:29:17.086Z,5.83
2019-03-05T06:31:48.361Z,10.70
2019-03-05T06:34:19.254Z,8.10
2019-03-05T06:36:57.742Z,4.00
2019-03-05T06:39:28.358Z,6.22
2019-03-05T06:41:58.869Z,9.30
2019-03-05T06:44:29.742Z,8.03
2019-03-05T06:47:00.476Z,8.10
2019-03-05T06:49:31.199Z,4.78
2019-03-05T06:52:01.963Z,6.42
2019-03-05T06:54:33.075Z,5.30
2019-03-05T06:57:03.801Z,6.08
2019-03-05T06:59:34.378Z,11.48
2019-03-05T07:02:05.006Z,7.40
2019-03-05T07:04:35.597Z,5.42
2019-03-05T07:07:06.497Z,3.40
2019-03-05T07:10:36.356Z,2.85
2019-03-05T07:13:25.284Z,5.30
2019-03-05T07:16:41.541Z,3.80
2019-03-05T07:19:31.726Z,6.72
2019-03-05T07:22:55.579Z,4.62
2019-03-05T07:25:26.232Z,7.95
2019-03-05T07:27:59.593Z,8.80
2019-03-05T07:30:30.435Z,6.28
2019-03-05T07:33:01.645Z,10.70
2019-03-05T07:35:34.675Z,10.23
2019-03-05T07:38:05.897Z,9.25
2019-03-05T07:40:36.617Z,10.23
2019-03-05T07:43:07.804Z,12.78
2019-03-05T07:45:38.791Z,9.08
2019-03-05T07:48:09.870Z,7.12
2019-03-05T07:50:40.931Z,5.72
2019-03-05T07:53:12.090Z,5.92
2019-03-05T07:55:42.803Z,3.62
2019-03-05T07:58:13.419Z,4.70
2019-03-05T08:00:44.172Z,4.87
2019-03-05T08:03:14.950Z,4.55
2019-03-05T08:05:47.549Z,3.72
2019-03-05T08:09:12.558Z,3.00
2019-03-05T08:11:43.135Z,4.40
2019-03-05T08:14:50.759Z,4.75
2019-03-05T08:17:21.695Z,2.35
2019-03-05T08:19:52.419Z,4.33
2019-03-05T08:22:23.445Z,5.03
2019-03-05T08:24:54.183Z,5.85
2019-03-05T08:27:25.050Z,6.03
2019-03-05T08:29:56.491Z,3.90
2019-03-05T08:32:27.292Z,4.75
2019-03-05T08:34:59.862Z,4.42
2019-03-05T08:37:30.324Z,5.60
2019-03-05T08:40:01.102Z,5.05
2019-03-05T08:42:31.648Z,5.03
2019-03-05T08:45:02.474Z,6.90
2019-03-05T08:47:32.953Z,5.78
2019-03-05T08:50:03.412Z,6.90
2019-03-05T08:52:34.071Z,6.00
2019-03-05T08:55:04.512Z,6.42
2019-03-05T08:57:35.312Z,3.98
2019-03-05T09:00:08.671Z,5.10
2019-03-05T09:02:47.983Z,5.35
2019-03-05T09:05:12.465Z,4.47
2019-03-05T09:07:43.574Z,5.10
2019-03-05T09:10:15.655Z,4.45
2019-03-05T09:12:46.418Z,4.10
2019-03-05T09:15:18.205Z,4.67
2019-03-05T09:17:49.002Z,4.75
2019-03-05T09:20:21.213Z,5.70
2019-03-05T09:22:51.878Z,5.08
2019-03-05T09:25:22.445Z,2.87
2019-03-05T09:27:52.950Z,4.15
2019-03-05T09:30:23.401Z,4.20
2019-03-05T09:32:53.990Z,4.45
2019-03-05T09:35:24.591Z,3.58
2019-03-05T09:37:55.274Z,3.83
2019-03-05T09:40:26.652Z,3.22
2019-03-05T09:42:57.707Z,4.65
2019-03-05T09:45:28.509Z,4.12
2019-03-05T09:47:59.123Z,5.65
2019-03-05T09:50:31.977Z,3.15
2019-03-05T09:53:02.144Z,5.35
2019-03-05T09:55:36.507Z,3.35
2019-03-05T09:58:08.838Z,3.05
2019-03-05T10:00:39.693Z,3.65
2019-03-05T10:03:10.573Z,3.05
2019-03-05T10:05:41.059Z,4.30
2019-03-05T10:08:11.679Z,2.85
2019-03-05T10:10:42.352Z,3.30
2019-03-05T10:13:13.472Z,3.15
2019-03-05T10:15:44.250Z,3.00
2019-03-05T10:18:15.062Z,3.40
2019-03-05T10:20:45.877Z,3.42
2019-03-05T10:23:16.404Z,2.40
2019-03-05T10:25:46.949Z,3.98
2019-03-05T10:28:17.877Z,2.98
2019-03-05T10:30:48.457Z,2.10
2019-03-05T10:33:19.461Z,3.55
2019-03-05T10:35:50.267Z,2.98
2019-03-05T10:38:21.974Z,2.40
2019-03-05T10:40:55.870Z,2.75
2019-03-05T10:43:26.338Z,2.42
2019-03-05T10:45:56.935Z,2.05
2019-03-05T10:48:30.161Z,2.70
2019-03-05T10:51:00.136Z,2.67
2019-03-05T10:53:31.300Z,2.77
2019-03-05T10:56:02.185Z,2.42
2019-03-05T10:58:34.370Z,2.83
2019-03-05T11:01:06.126Z,3.40
2019-03-05T11:03:36.742Z,3.10
2019-03-05T11:06:08.076Z,2.08
2019-03-05T11:08:38.649Z,3.22
2019-03-05T11:11:13.460Z,2.40
2019-03-05T11:13:42.276Z,2.75
2019-03-05T11:16:13.191Z,2.08
2019-03-05T11:18:43.779Z,4.08
2019-03-05T11:21:24.365Z,2.10
2019-03-05T11:23:55.258Z,1.60
2019-03-05T11:26:25.877Z,2.08
2019-03-05T11:28:56.449Z,2.40
2019-03-05T11:31:26.945Z,3.42
2019-03-05T11:33:57.664Z,1.87
2019-03-05T11:36:29.523Z,2.40
2019-03-05T11:39:00.403Z,3.10
2019-03-05T11:41:30.838Z,2.92
2019-03-05T11:44:01.540Z,2.80
2019-03-05T11:46:32.211Z,2.67
2019-03-05T11:49:02.703Z,2.75
2019-03-05T11:51:33.186Z,4.83
2019-03-05T11:54:03.765Z,2.72
2019-03-05T11:56:34.443Z,2.52
2019-03-05T11:59:05.203Z,3.33
2019-03-05T12:01:45.225Z,1.70
2019-03-05T12:04:15.915Z,2.00
2019-03-05T12:06:46.553Z,1.62
2019-03-05T12:09:17.331Z,2.35
2019-03-05T12:11:47.788Z,3.08
2019-03-05T12:14:18.431Z,2.33
2019-03-05T12:16:49.119Z,2.67
2019-03-05T12:19:19.967Z,2.25
2019-03-05T12:21:50.662Z,2.37
2019-03-05T12:24:24.199Z,3.00
2019-03-05T12:26:53.645Z,4.35
2019-03-05T12:29:24.383Z,3.17
2019-03-05T12:31:55.088Z,2.55
2019-03-05T12:34:25.829Z,1.70
2019-03-05T12:36:56.484Z,2.75
2019-03-05T12:39:27.018Z,2.35
2019-03-05T12:41:57.639Z,2.10
2019-03-05T12:44:28.446Z,2.40
2019-03-05T12:46:59.401Z,1.55
2019-03-05T12:49:30.142Z,3.22
2019-03-05T12:52:00.766Z,2.80
2019-03-05T12:54:31.701Z,2.62
2019-03-05T12:57:03.174Z,1.47
2019-03-05T12:59:33.812Z,1.40
2019-03-05T13:02:04.435Z,4.17
2019-03-05T13:04:34.894Z,2.40
2019-03-05T13:07:05.557Z,2.70
2019-03-05T13:09:36.231Z,3.85
2019-03-05T13:12:06.760Z,4.42
2019-03-05T13:14:38.374Z,3.77
2019-03-05T13:17:10.181Z,3.35
2019-03-05T13:19:44.377Z,2.72
2019-03-05T13:22:14.382Z,4.25
2019-03-05T13:24:46.851Z,2.45
2019-03-05T13:27:18.781Z,2.08
2019-03-05T13:29:50.601Z,3.77
2019-03-05T13:32:22.064Z,2.50
2019-03-05T13:34:52.740Z,1.98
2019-03-05T13:37:28.566Z,4.53
2019-03-05T13:39:59.226Z,4.45
2019-03-05T13:42:33.436Z,2.98
2019-03-05T13:45:09.304Z,3.15
2019-03-05T13:47:41.720Z,2.50
2019-03-05T13:51:51.455Z,3.45
2019-03-05T13:55:17.829Z,4.12
2019-03-05T13:58:42.381Z,2.87
2019-03-05T14:01:13.752Z,3.72
2019-03-05T14:04:04.167Z,4.00
2019-03-05T14:07:59.063Z,3.60
2019-03-05T14:10:30.528Z,3.52
2019-03-05T14:13:02.247Z,3.92
2019-03-05T14:15:39.667Z,1.80
2019-03-05T14:18:11.051Z,1.85
2019-03-05T14:20:42.218Z,4.50
2019-03-05T14:23:13.125Z,3.42
2019-03-05T14:25:44.005Z,3.42
2019-03-05T14:28:15.181Z,1.92
2019-03-05T14:30:46.190Z,5.53
2019-03-05T14:33:18.758Z,5.47
2019-03-05T14:35:50.499Z,2.90
2019-03-05T14:38:23.058Z,7.37
2019-03-05T14:40:53.809Z,7.75
2019-03-05T14:43:25.300Z,8.83
2019-03-05T14:45:56.499Z,5.08
2019-03-05T14:48:27.757Z,6.05
2019-03-05T14:50:58.574Z,3.52
2019-03-05T14:53:29.258Z,4.67
2019-03-05T14:56:01.000Z,4.42
2019-03-05T14:58:31.856Z,6.70
2019-03-05T15:01:03.026Z,6.25
2019-03-05T15:03:34.217Z,7.65
2019-03-05T15:06:05.302Z,5.45
2019-03-05T15:08:35.975Z,5.85
2019-03-05T15:11:06.822Z,3.33
2019-03-05T15:13:37.718Z,5.45
2019-03-05T15:16:08.789Z,3.77
2019-03-05T15:18:40.228Z,5.90
2019-03-05T15:21:13.149Z,4.08
2019-03-05T15:23:44.026Z,6.87
2019-03-05T15:26:15.204Z,5.90
2019-03-05T15:28:55.755Z,5.58
2019-03-05T15:31:19.402Z,3.67
2019-03-05T15:33:50.455Z,2.92
2019-03-05T15:36:23.998Z,4.47
2019-03-05T15:38:53.990Z,2.27
2019-03-05T15:41:24.916Z,2.85
2019-03-05T15:43:55.699Z,2.47
2019-03-05T15:46:26.790Z,4.58
2019-03-05T15:48:58.615Z,5.87
2019-03-05T15:51:30.933Z,4.72
2019-03-05T15:54:02.037Z,3.77
2019-03-05T15:56:32.563Z,2.22
2019-03-05T15:59:03.376Z,3.33
2019-03-05T16:01:34.282Z,4.35
2019-03-05T16:04:05.136Z,3.25
2019-03-05T16:06:35.888Z,4.30
2019-03-05T16:09:16.017Z,4.15
2019-03-05T16:11:48.015Z,2.85
2019-03-05T16:14:18.766Z,3.12
2019-03-05T16:16:51.702Z,3.42
2019-03-05T16:19:22.208Z,3.47
2019-03-05T16:21:52.914Z,3.37
2019-03-05T16:24:23.651Z,3.15
2019-03-05T16:26:56.799Z,2.77
2019-03-05T16:29:27.385Z,2.12
2019-03-05T16:32:15.532Z,2.52
2019-03-05T16:35:11.177Z,2.58
2019-03-05T16:38:10.271Z,5.53
2019-03-05T16:40:56.377Z,5.03
2019-03-05T16:43:41.877Z,3.95
2019-03-05T16:46:40.542Z,3.85
2019-03-05T16:49:45.139Z,3.62
2019-03-05T16:52:33.763Z,2.15
2019-03-05T16:55:22.473Z,3.47
2019-03-05T16:58:14.015Z,2.60
2019-03-05T17:01:09.840Z,2.77
2019-03-05T17:03:50.789Z,2.62
2019-03-05T17:06:52.955Z,2.92
2019-03-05T17:09:41.554Z,4.62
2019-03-05T17:12:12.409Z,3.98
2019-03-05T17:14:43.379Z,3.58
2019-03-05T17:17:14.178Z,4.50
2019-03-05T17:19:45.362Z,3.37
2019-03-05T17:22:16.162Z,3.08
2019-03-05T17:24:46.998Z,3.10
2019-03-05T17:27:17.884Z,2.10
2019-03-05T17:29:48.727Z,2.37
2019-03-05T17:32:19.333Z,2.17
2019-03-05T17:34:49.983Z,2.58
2019-03-05T17:37:21.579Z,3.10
2019-03-05T17:39:53.756Z,2.15
2019-03-05T17:42:24.707Z,2.17
2019-03-05T17:44:56.406Z,3.87
2019-03-05T17:47:27.239Z,3.27
2019-03-05T17:49:58.034Z,2.77
2019-03-05T17:52:29.343Z,3.47
2019-03-05T17:55:00.830Z,2.70
2019-03-05T17:57:32.097Z,3.42
2019-03-05T18:00:03.978Z,3.30
2019-03-05T18:02:35.209Z,3.02
2019-03-05T18:05:06.732Z,4.95
2019-03-05T18:07:37.841Z,3.08
2019-03-05T18:10:12.115Z,3.33
2019-03-05T18:12:45.627Z,1.92
2019-03-05T18:15:16.888Z,3.92
2019-03-05T18:17:48.106Z,4.90
2019-03-05T18:20:19.374Z,3.02
2019-03-05T18:22:50.307Z,6.75
2019-03-05T18:25:21.172Z,5.65
2019-03-05T18:27:52.922Z,4.15
2019-03-05T18:30:23.799Z,6.08
2019-03-05T18:32:54.296Z,7.30
2019-03-05T18:35:25.015Z,5.75
2019-03-05T18:37:55.946Z,9.15
2019-03-05T18:40:26.926Z,7.78
2019-03-05T18:42:57.835Z,74.50
2019-03-05T18:45:28.475Z,63.02
2019-03-05T18:47:59.193Z,50.25
2019-03-05T18:50:30.099Z,60.03
2019-03-05T18:53:00.773Z,90.17
2019-03-05T18:55:32.522Z,545.05
2019-03-05T18:58:03.488Z,409.83
2019-03-05T19:00:34.213Z,912.85
2019-03-05T19:03:05.652Z,477.88
2019-03-05T19:05:36.462Z,241.48
2019-03-05T19:08:07.315Z,172.07
2019-03-05T19:10:37.940Z,138.47
2019-03-05T19:13:08.506Z,106.17
2019-03-05T19:15:39.140Z,85.07
2019-03-05T19:18:10.004Z,68.57
2019-03-05T19:20:40.688Z,72.05
2019-03-05T19:23:11.346Z,66.57
2019-03-05T19:25:42.185Z,59.48
2019-03-05T19:28:12.862Z,60.95
2019-03-05T19:30:43.623Z,58.65
2019-03-05T19:33:14.465Z,55.73
2019-03-05T19:35:45.256Z,54.60
2019-03-05T19:38:16.115Z,57.38
2019-03-05T19:40:47.602Z,54.73
2019-03-05T19:43:18.321Z,47.60
2019-03-05T19:45:48.974Z,47.03
2019-03-05T19:48:19.747Z,47.35
2019-03-05T19:50:50.472Z,51.50
2019-03-05T19:53:21.228Z,43.70
2019-03-05T19:55:52.226Z,42.55
2019-03-05T19:58:22.854Z,47.38
2019-03-05T20:01:13.747Z,43.28
2019-03-05T20:03:46.276Z,45.43
2019-03-05T20:06:18.845Z,40.48
2019-03-05T20:08:51.001Z,40.63
2019-03-05T20:11:23.681Z,40.63
2019-03-05T20:13:57.969Z,40.30
2019-03-05T20:16:31.183Z,41.92
2019-03-05T20:19:04.221Z,39.10
2019-03-05T20:21:38.065Z,36.63
2019-03-05T20:24:11.260Z,39.67
2019-03-05T20:26:43.899Z,33.90
2019-03-05T20:29:17.397Z,37.38
2019-03-05T20:31:50.808Z,34.00
2019-03-05T20:34:24.239Z,29.00
2019-03-05T20:36:58.101Z,27.77
2019-03-05T20:39:31.838Z,24.80
2019-03-05T20:42:04.700Z,23.95
2019-03-05T20:44:35.909Z,23.98
2019-03-05T20:47:06.883Z,22.62
2019-03-05T20:49:37.730Z,19.75
2019-03-05T20:52:08.660Z,21.82
2019-03-05T20:54:39.312Z,16.70
2019-03-05T20:57:10.045Z,20.80
2019-03-05T20:59:40.919Z,18.57
2019-03-05T21:02:11.840Z,18.62
2019-03-05T21:04:42.687Z,22.65
2019-03-05T21:07:13.528Z,22.07
2019-03-05T21:09:45.045Z,20.77
2019-03-05T21:12:15.847Z,19.45
2019-03-05T21:14:46.378Z,21.50
2019-03-05T21:17:16.960Z,20.15
2019-03-05T21:19:47.560Z,17.02
2019-03-05T21:22:18.134Z,19.65
2019-03-05T21:24:48.591Z,24.60
2019-03-05T21:27:19.394Z,22.70
2019-03-05T21:29:50.305Z,19.95
2019-03-05T21:32:21.059Z,22.62
2019-03-05T21:34:53.021Z,22.15
2019-03-05T21:37:24.131Z,24.40
2019-03-05T21:39:56.687Z,21.75
2019-03-05T21:42:29.586Z,22.55
2019-03-05T21:45:01.224Z,21.30
2019-03-05T21:47:32.472Z,19.75
2019-03-05T21:50:03.423Z,19.98
2019-03-05T21:52:34.511Z,18.05
2019-03-05T21:55:05.699Z,22.15
2019-03-05T21:57:36.312Z,19.87
2019-03-05T22:00:10.729Z,17.77
2019-03-05T22:02:41.735Z,19.42
2019-03-05T22:05:12.407Z,18.07
2019-03-05T22:07:43.040Z,18.00
2019-03-05T22:10:16.635Z,17.57
2019-03-05T22:12:47.242Z,18.40
2019-03-05T22:15:19.474Z,23.20
2019-03-05T22:17:50.262Z,32.55
2019-03-05T22:20:22.017Z,27.20
2019-03-05T22:22:52.888Z,24.60
2019-03-05T22:25:23.438Z,21.73
2019-03-05T22:27:54.204Z,19.60
2019-03-05T22:30:26.901Z,20.37
2019-03-05T22:32:57.681Z,22.20
2019-03-05T22:35:28.532Z,16.05
2019-03-05T22:37:59.308Z,17.98
2019-03-05T22:40:30.012Z,18.80
2019-03-05T22:43:00.525Z,15.55
2019-03-05T22:45:31.380Z,14.50
2019-03-05T22:48:02.229Z,15.55
2019-03-05T22:50:32.806Z,17.27
2019-03-05T22:53:03.497Z,17.35
2019-03-05T22:55:34.209Z,14.05
2019-03-05T22:58:04.855Z,14.35
2019-03-05T23:01:20.554Z,11.00
2019-03-05T23:03:59.862Z,15.08
2019-03-05T23:06:30.795Z,13.90
2019-03-05T23:09:01.923Z,12.55
2019-03-05T23:11:33.093Z,11.88
2019-03-05T23:14:03.914Z,10.43
2019-03-05T23:16:35.751Z,11.93
2019-03-05T23:19:08.459Z,12.63
2019-03-05T23:21:39.978Z,10.78
2019-03-05T23:24:11.114Z,11.65
2019-03-05T23:26:42.107Z,11.85
2019-03-05T23:29:12.838Z,11.45
2019-03-05T23:31:43.322Z,10.85
2019-03-05T23:34:18.256Z,11.18
2019-03-05T23:36:46.465Z,11.53
2019-03-05T23:39:17.946Z,10.70
2019-03-05T23:41:48.612Z,8.80
2019-03-05T23:44:19.259Z,10.08
2019-03-05T23:46:49.873Z,10.70
2019-03-05T23:49:20.606Z,9.28
2019-03-05T23:51:51.224Z,9.00
2019-03-05T23:54:22.125Z,9.83
2019-03-05T23:56:52.604Z,8.43
2019-03-05T23:59:23.618Z,8.03
